Resolute — WTW2234 — position and weather

sailwx.info

Track history (hours):
 
Tides and Currents Weather Stations Pressure Air Temp Water Temp Dewpoint Dewpoint Depression Visibility Wind Speed Wind Dir Waves Ship Positions

Resolute

Owner: Providence Steamboat Co., PROVIDENCE, RI. More information available from US FCC via Universal Licensing System and Coast Guard Vessel Documentation Center.

Last reported at 2014-Dec-22 08:33 UTC. Time now 2014-Dec-22 09:15 UTC.
Position N 41°08' W 073°03'.

Length 30 m; draft 4 m.

Type: Tug. MMSI: 367091630.

Date/timePositionNaut miles runAvg speedWind from/ knotsBaromVisibWave heightAir tempDewpointWater temp
2014-Dec-22 08:33N 41°08' W 073°03'8 7.4
2014-Dec-22 07:33N 41°04' W 073°12'8 7.9
2014-Dec-22 06:33N 41°01' W 073°21'8 8.0
2014-Dec-22 05:33N 40°58' W 073°31'10 7.6
2014-Dec-22 04:14N 40°53' W 073°43'7 6.8
2014-Dec-22 03:16N 40°48' W 073°48'5 6.7
2014-Dec-22 02:32N 40°48' W 073°54'5 5.5
2014-Dec-22 01:33N 40°44' W 073°58'5 5.5
2014-Dec-22 00:34N 40°39' W 074°03'0 0.1
2014-Dec-21 23:33N 40°39' W 074°03'0 0.1
2014-Dec-21 22:33N 40°39' W 074°03'0 0.0
2014-Dec-21 21:33N 40°39' W 074°03'3 3.3
2014-Dec-21 20:33N 40°39' W 074°07'5 4.1
2014-Dec-21 19:13N 40°35' W 074°12'3 1.7
2014-Dec-21 17:33N 40°33' W 074°15'0 0.0
2014-Dec-21 16:33N 40°33' W 074°15'0 0.0
2014-Dec-21 15:30N 40°33' W 074°15'0 0.0
2014-Dec-21 14:26N 40°33' W 074°15'4 3.1
2014-Dec-21 13:13N 40°36' W 074°12'3 3.4
2014-Dec-21 12:21N 40°38' W 074°10'0 0.3
2014-Dec-21 11:33N 40°38' W 074°10'0 0.2
2014-Dec-21 10:31N 40°38' W 074°10'6 4.8
2014-Dec-21 09:14N 40°33' W 074°14'1 1.2
2014-Dec-21 08:31N 40°33' W 074°15'4 3.6
2014-Dec-21 07:22N 40°36' W 074°12'3 3.7
2014-Dec-21 06:33N 40°38' W 074°10'0 0.2
2014-Dec-21 05:27N 40°38' W 074°10'0 0.0
2014-Dec-21 04:33N 40°38' W 074°10'0 0.0
2014-Dec-21 03:33N 40°38' W 074°10'0 0.0
2014-Dec-21 02:33N 40°38' W 074°10'2 1.6
2014-Dec-21 01:33N 40°40' W 074°09'3 3.0
2014-Dec-21 00:31N 40°38' W 074°12'1 1.1
2014-Dec-20 23:26N 40°39' W 074°11'6 6.4
2014-Dec-20 22:33N 40°39' W 074°04'5 4.5
2014-Dec-20 21:33N 40°38' W 074°09'5 5.1
2014-Dec-20 20:33N 40°40' W 074°03'8 8.2
2014-Dec-20 19:33N 40°48' W 073°59'5 4.7
2014-Dec-20 18:33N 40°52' W 073°57'17 7.7
2014-Dec-20 16:22N 41°08' W 073°53'6 0.2
2014-Dec-19 12:28N 41°14' W 073°57'0 0.0
2014-Dec-19 11:30N 41°14' W 073°57'22 1.7
2014-Dec-18 22:06N 40°51' W 073°57'4 7.1
2014-Dec-18 21:32N 40°48' W 073°59'6 6.6
2014-Dec-18 20:33N 40°41' W 074°02'5 5.4
2014-Dec-18 19:33N 40°39' W 074°08'5 4.4
2014-Dec-18 18:27N 40°35' W 074°12'3 1.8
2014-Dec-18 16:29N 40°32' W 074°15'7 7.9
2014-Dec-18 15:33N 40°39' W 074°10'0 0.4
2014-Dec-18 14:32N 40°38' W 074°10'3 3.2
2014-Dec-18 13:33N 40°39' W 074°06'0 0.0
2014-Dec-18 12:33N 40°39' W 074°06'0 0.0
2014-Dec-18 11:33N 40°39' W 074°06'0 0.0
2014-Dec-18 10:33N 40°39' W 074°06'8 6.2
2014-Dec-18 09:12N 40°33' W 074°14'0 0.1
2014-Dec-18 08:07N 40°33' W 074°14'0 0.0
2014-Dec-18 07:11N 40°33' W 074°14'0 0.0
2014-Dec-18 06:27N 40°33' W 074°14'1 1.1
2014-Dec-18 05:24N 40°32' W 074°15'3 2.2
2014-Dec-18 04:10N 40°34' W 074°13'5 7.8
2014-Dec-18 03:33N 40°39' W 074°10'6 5.8
2014-Dec-18 02:33N 40°39' W 074°03'0 0.0
2014-Dec-18 01:33N 40°39' W 074°03'5 5.0
2014-Dec-18 00:34N 40°38' W 074°09'0 0.4
2014-Dec-17 23:15N 40°38' W 074°10'1 0.8
2014-Dec-17 21:34N 40°38' W 074°11'1 1.3
2014-Dec-17 20:33N 40°38' W 074°10'0 0.0
2014-Dec-17 19:33N 40°38' W 074°10'1 1.2
2014-Dec-17 18:28N 40°40' W 074°09'1 0.7
2014-Dec-17 17:33N 40°40' W 074°08'2 1.8
2014-Dec-17 16:33N 40°39' W 074°07'0 0.1
2014-Dec-17 15:33N 40°39' W 074°07'0 0.1
2014-Dec-17 14:33N 40°39' W 074°07'3 3.4
2014-Dec-17 13:33N 40°39' W 074°03'0 0.1
2014-Dec-17 12:33N 40°39' W 074°03'3 3.2
2014-Dec-17 11:33N 40°39' W 074°07'4 1.1
2014-Dec-17 07:32N 40°37' W 074°12'5 5.2
2014-Dec-17 06:33N 40°39' W 074°06'2 2.5
2014-Dec-17 05:33N 40°40' W 074°08'1 1.2
2014-Dec-17 04:28N 40°42' W 074°09'0 0.3
2014-Dec-17 03:33N 40°42' W 074°08'3 3.3
2014-Dec-17 02:33N 40°39' W 074°05'4 3.9
2014-Dec-17 01:33N 40°40' W 074°00'0 0.0
2014-Dec-17 00:33N 40°40' W 074°00'0 0.0
2014-Dec-16 23:33N 40°40' W 074°00'4 3.7
2014-Dec-16 22:33N 40°40' W 074°05'1 0.6
2014-Dec-16 21:33N 40°40' W 074°04'4 3.6
2014-Dec-16 20:33N 40°39' W 074°09'3 2.6
2014-Dec-16 19:33N 40°42' W 074°08'2 2.1
2014-Dec-16 18:33N 40°40' W 074°09'0 0.1
2014-Dec-16 17:33N 40°40' W 074°09'0 0.1
2014-Dec-16 16:33N 40°40' W 074°09'0 0.4
2014-Dec-16 15:33N 40°39' W 074°09'2 2.0
2014-Dec-16 14:33N 40°38' W 074°11'0 0.0
2014-Dec-16 13:34N 40°38' W 074°11'0 0.0
2014-Dec-16 12:18N 40°38' W 074°11'0 0.0
2014-Dec-16 11:33N 40°38' W 074°11'4 4.4
2014-Dec-16 10:33N 40°39' W 074°06'3 2.7
2014-Dec-16 09:33N 40°41' W 074°03'0 0.1
2014-Dec-16 08:33N 40°41' W 074°03'2 2.3
2014-Dec-16 07:33N 40°39' W 074°05'3 2.6
2014-Dec-16 06:33N 40°41' W 074°08'1 0.5
2014-Dec-16 05:34N 40°40' W 074°08'2 1.9
2014-Dec-16 04:31N 40°38' W 074°10'0 0.0
2014-Dec-16 03:32N 40°38' W 074°10'0 0.0
2014-Dec-16 02:33N 40°38' W 074°10'3 3.3
2014-Dec-16 01:32N 40°42' W 074°08'3 1.6
2014-Dec-15 23:34N 40°39' W 074°08'1 1.1
2014-Dec-15 22:32N 40°38' W 074°10'0 0.0
2014-Dec-15 21:33N 40°38' W 074°10'0 0.0
2014-Dec-15 20:32N 40°38' W 074°10'0 0.0
2014-Dec-15 19:30N 40°38' W 074°10'0 0.0
2014-Dec-15 18:33N 40°38' W 074°10'0 0.0
2014-Dec-15 17:33N 40°38' W 074°10'0 0.0
2014-Dec-15 16:33N 40°38' W 074°10'0 0.0
2014-Dec-15 15:33N 40°38' W 074°10'0 0.0
2014-Dec-15 14:33N 40°38' W 074°10'0 0.0
2014-Dec-15 13:34N 40°38' W 074°10'1 0.8
2014-Dec-15 12:31N 40°39' W 074°11'5 5.3
2014-Dec-15 11:33N 40°40' W 074°04'1 0.6
2014-Dec-15 10:33N 40°40' W 074°05'0 0.0
2014-Dec-15 09:33N 40°40' W 074°05'4 4.0
2014-Dec-15 08:33N 40°38' W 074°10'0 0.0
2014-Dec-15 07:33N 40°38' W 074°10'0 0.0
2014-Dec-15 06:33N 40°38' W 074°10'0 0.0
2014-Dec-15 05:33N 40°38' W 074°10'0 0.0
2014-Dec-15 04:33N 40°38' W 074°10'0 0.0
2014-Dec-15 03:33N 40°38' W 074°10'0 0.0
2014-Dec-15 02:33N 40°38' W 074°10'5 4.6
2014-Dec-15 01:31N 40°40' W 074°04'0 0.4
2014-Dec-15 00:33N 40°40' W 074°04'0 0.1
2014-Dec-14 23:33N 40°40' W 074°04'1 1.2
2014-Dec-14 22:33N 40°39' W 074°05'1 0.5
2014-Dec-14 21:33N 40°39' W 074°06'0 0.2
2014-Dec-14 20:33N 40°39' W 074°06'2 2.0
2014-Dec-14 19:33N 40°40' W 074°04'4 3.5
2014-Dec-14 18:33N 40°40' W 074°08'2 1.3
2014-Dec-14 17:22N 40°42' W 074°08'0 0.0
2014-Dec-14 15:33N 40°42' W 074°08'1 1.3
2014-Dec-14 14:32N 40°40' W 074°08'0 0.0
2014-Dec-14 13:33N 40°40' W 074°08'0 0.0
2014-Dec-14 12:33N 40°40' W 074°08'0 0.4
2014-Dec-14 11:33N 40°41' W 074°09'2 1.6
2014-Dec-14 10:11N 40°39' W 074°08'4 6.1
2014-Dec-14 09:34N 40°38' W 074°03'5 4.9
2014-Dec-14 08:32N 40°38' W 074°10'8 6.6
2014-Dec-14 07:17N 40°31' W 074°15'2 1.9
2014-Dec-14 06:21N 40°30' W 074°15'2 0.6
2014-Dec-14 03:19N 40°31' W 074°15'3 3.8
2014-Dec-14 02:26N 40°34' W 074°13'5 5.3
2014-Dec-14 01:33N 40°38' W 074°10'0 0.0
2014-Dec-14 00:33N 40°38' W 074°10'2 2.4
2014-Dec-13 23:33N 40°41' W 074°08'2 2.1
2014-Dec-13 22:32N 40°39' W 074°08'2 1.7
2014-Dec-13 21:33N 40°38' W 074°10'0 0.0
2014-Dec-13 20:33N 40°38' W 074°10'0 0.0
2014-Dec-13 19:33N 40°38' W 074°10'0 0.0
2014-Dec-13 18:33N 40°38' W 074°10'0 0.0
2014-Dec-13 17:34N 40°38' W 074°10'0 0.0
2014-Dec-13 16:33N 40°38' W 074°10'0 0.0
2014-Dec-13 15:33N 40°38' W 074°10'0 0.2
2014-Dec-13 14:28N 40°39' W 074°10'0 0.2
2014-Dec-13 13:33N 40°38' W 074°10'0 0.0
2014-Dec-13 12:33N 40°38' W 074°10'2 2.3
2014-Dec-13 11:33N 40°39' W 074°07'0 0.3
2014-Dec-13 10:33N 40°39' W 074°07'2 2.0
2014-Dec-13 09:34N 40°38' W 074°10'0 0.0
2014-Dec-13 08:33N 40°38' W 074°10'0 0.0
2014-Dec-13 07:33N 40°38' W 074°10'10 2.4
2014-Dec-13 03:32N 40°30' W 074°15'2 2.2
2014-Dec-13 02:26N 40°32' W 074°15'0 0.0
2014-Dec-13 01:27N 40°32' W 074°15'0 0.0
2014-Dec-13 00:04N 40°32' W 074°15'0 0.0
2014-Dec-12 23:07N 40°32' W 074°15'4 0.9
2014-Dec-12 19:14N 40°35' W 074°13'3 1.6
2014-Dec-12 17:31N 40°38' W 074°12'0 0.3
2014-Dec-12 16:27N 40°38' W 074°12'5 5.5
2014-Dec-12 15:33N 40°39' W 074°06'3 3.2
2014-Dec-12 14:33N 40°38' W 074°10'0 0.0
2014-Dec-12 13:33N 40°38' W 074°10'0 0.0
2014-Dec-12 12:33N 40°38' W 074°10'0 0.0
2014-Dec-12 11:33N 40°38' W 074°10'3 3.0
2014-Dec-12 10:33N 40°39' W 074°06'4 4.3
2014-Dec-12 09:33N 40°40' W 074°00'  
Track history (hours):
 
Tides and Currents Weather Stations Pressure Air Temp Water Temp Dewpoint Dewpoint Depression Visibility Wind Speed Wind Dir Waves Ship Positions

Resolute

Owner: Providence Steamboat Co., PROVIDENCE, RI. More information available from US FCC via Universal Licensing System and Coast Guard Vessel Documentation Center.

Last reported at 2014-Dec-22 08:33 UTC. Time now 2014-Dec-22 09:15 UTC.
Position N 41°08' W 073°03'.

Length 30 m; draft 4 m.

Type: Tug. MMSI: 367091630.

Date/timePositionNaut miles runAvg speedWind from/ knotsBaromVisibWave heightAir tempDewpointWater temp
2014-Dec-22 08:33N 41°08' W 073°03'8 7.4
2014-Dec-22 07:33N 41°04' W 073°12'8 7.9
2014-Dec-22 06:33N 41°01' W 073°21'8 8.0
2014-Dec-22 05:33N 40°58' W 073°31'10 7.6
2014-Dec-22 04:14N 40°53' W 073°43'7 6.8
2014-Dec-22 03:16N 40°48' W 073°48'5 6.7
2014-Dec-22 02:32N 40°48' W 073°54'5 5.5
2014-Dec-22 01:33N 40°44' W 073°58'5 5.5
2014-Dec-22 00:34N 40°39' W 074°03'0 0.1
2014-Dec-21 23:33N 40°39' W 074°03'0 0.1
2014-Dec-21 22:33N 40°39' W 074°03'0 0.0
2014-Dec-21 21:33N 40°39' W 074°03'3 3.3
2014-Dec-21 20:33N 40°39' W 074°07'5 4.1
2014-Dec-21 19:13N 40°35' W 074°12'3 1.7
2014-Dec-21 17:33N 40°33' W 074°15'0 0.0
2014-Dec-21 16:33N 40°33' W 074°15'0 0.0
2014-Dec-21 15:30N 40°33' W 074°15'0 0.0
2014-Dec-21 14:26N 40°33' W 074°15'4 3.1
2014-Dec-21 13:13N 40°36' W 074°12'3 3.4
2014-Dec-21 12:21N 40°38' W 074°10'0 0.3
2014-Dec-21 11:33N 40°38' W 074°10'0 0.2
2014-Dec-21 10:31N 40°38' W 074°10'6 4.8
2014-Dec-21 09:14N 40°33' W 074°14'1 1.2
2014-Dec-21 08:31N 40°33' W 074°15'4 3.6
2014-Dec-21 07:22N 40°36' W 074°12'3 3.7
2014-Dec-21 06:33N 40°38' W 074°10'0 0.2
2014-Dec-21 05:27N 40°38' W 074°10'0 0.0
2014-Dec-21 04:33N 40°38' W 074°10'0 0.0
2014-Dec-21 03:33N 40°38' W 074°10'0 0.0
2014-Dec-21 02:33N 40°38' W 074°10'2 1.6
2014-Dec-21 01:33N 40°40' W 074°09'3 3.0
2014-Dec-21 00:31N 40°38' W 074°12'1 1.1
2014-Dec-20 23:26N 40°39' W 074°11'6 6.4
2014-Dec-20 22:33N 40°39' W 074°04'5 4.5
2014-Dec-20 21:33N 40°38' W 074°09'5 5.1
2014-Dec-20 20:33N 40°40' W 074°03'8 8.2
2014-Dec-20 19:33N 40°48' W 073°59'5 4.7
2014-Dec-20 18:33N 40°52' W 073°57'17 7.7
2014-Dec-20 16:22N 41°08' W 073°53'6 0.2
2014-Dec-19 12:28N 41°14' W 073°57'0 0.0
2014-Dec-19 11:30N 41°14' W 073°57'22 1.7
2014-Dec-18 22:06N 40°51' W 073°57'4 7.1
2014-Dec-18 21:32N 40°48' W 073°59'6 6.6
2014-Dec-18 20:33N 40°41' W 074°02'5 5.4
2014-Dec-18 19:33N 40°39' W 074°08'5 4.4
2014-Dec-18 18:27N 40°35' W 074°12'3 1.8
2014-Dec-18 16:29N 40°32' W 074°15'7 7.9
2014-Dec-18 15:33N 40°39' W 074°10'0 0.4
2014-Dec-18 14:32N 40°38' W 074°10'3 3.2
2014-Dec-18 13:33N 40°39' W 074°06'0 0.0
2014-Dec-18 12:33N 40°39' W 074°06'0 0.0
2014-Dec-18 11:33N 40°39' W 074°06'0 0.0
2014-Dec-18 10:33N 40°39' W 074°06'8 6.2
2014-Dec-18 09:12N 40°33' W 074°14'0 0.1
2014-Dec-18 08:07N 40°33' W 074°14'0 0.0
2014-Dec-18 07:11N 40°33' W 074°14'0 0.0
2014-Dec-18 06:27N 40°33' W 074°14'1 1.1
2014-Dec-18 05:24N 40°32' W 074°15'3 2.2
2014-Dec-18 04:10N 40°34' W 074°13'5 7.8
2014-Dec-18 03:33N 40°39' W 074°10'6 5.8
2014-Dec-18 02:33N 40°39' W 074°03'0 0.0
2014-Dec-18 01:33N 40°39' W 074°03'5 5.0
2014-Dec-18 00:34N 40°38' W 074°09'0 0.4
2014-Dec-17 23:15N 40°38' W 074°10'1 0.8
2014-Dec-17 21:34N 40°38' W 074°11'1 1.3
2014-Dec-17 20:33N 40°38' W 074°10'0 0.0
2014-Dec-17 19:33N 40°38' W 074°10'1 1.2
2014-Dec-17 18:28N 40°40' W 074°09'1 0.7
2014-Dec-17 17:33N 40°40' W 074°08'2 1.8
2014-Dec-17 16:33N 40°39' W 074°07'0 0.1
2014-Dec-17 15:33N 40°39' W 074°07'0 0.1
2014-Dec-17 14:33N 40°39' W 074°07'3 3.4
2014-Dec-17 13:33N 40°39' W 074°03'0 0.1
2014-Dec-17 12:33N 40°39' W 074°03'3 3.2
2014-Dec-17 11:33N 40°39' W 074°07'4 1.1
2014-Dec-17 07:32N 40°37' W 074°12'5 5.2
2014-Dec-17 06:33N 40°39' W 074°06'2 2.5
2014-Dec-17 05:33N 40°40' W 074°08'1 1.2
2014-Dec-17 04:28N 40°42' W 074°09'0 0.3
2014-Dec-17 03:33N 40°42' W 074°08'3 3.3
2014-Dec-17 02:33N 40°39' W 074°05'4 3.9
2014-Dec-17 01:33N 40°40' W 074°00'0 0.0
2014-Dec-17 00:33N 40°40' W 074°00'0 0.0
2014-Dec-16 23:33N 40°40' W 074°00'4 3.7
2014-Dec-16 22:33N 40°40' W 074°05'1 0.6
2014-Dec-16 21:33N 40°40' W 074°04'4 3.6
2014-Dec-16 20:33N 40°39' W 074°09'3 2.6
2014-Dec-16 19:33N 40°42' W 074°08'2 2.1
2014-Dec-16 18:33N 40°40' W 074°09'0 0.1
2014-Dec-16 17:33N 40°40' W 074°09'0 0.1
2014-Dec-16 16:33N 40°40' W 074°09'0 0.4
2014-Dec-16 15:33N 40°39' W 074°09'2 2.0
2014-Dec-16 14:33N 40°38' W 074°11'0 0.0
2014-Dec-16 13:34N 40°38' W 074°11'0 0.0
2014-Dec-16 12:18N 40°38' W 074°11'0 0.0
2014-Dec-16 11:33N 40°38' W 074°11'4 4.4
2014-Dec-16 10:33N 40°39' W 074°06'3 2.7
2014-Dec-16 09:33N 40°41' W 074°03'0 0.1
2014-Dec-16 08:33N 40°41' W 074°03'2 2.3
2014-Dec-16 07:33N 40°39' W 074°05'3 2.6
2014-Dec-16 06:33N 40°41' W 074°08'1 0.5
2014-Dec-16 05:34N 40°40' W 074°08'2 1.9
2014-Dec-16 04:31N 40°38' W 074°10'0 0.0
2014-Dec-16 03:32N 40°38' W 074°10'0 0.0
2014-Dec-16 02:33N 40°38' W 074°10'3 3.3
2014-Dec-16 01:32N 40°42' W 074°08'3 1.6
2014-Dec-15 23:34N 40°39' W 074°08'1 1.1
2014-Dec-15 22:32N 40°38' W 074°10'0 0.0
2014-Dec-15 21:33N 40°38' W 074°10'0 0.0
2014-Dec-15 20:32N 40°38' W 074°10'0 0.0
2014-Dec-15 19:30N 40°38' W 074°10'0 0.0
2014-Dec-15 18:33N 40°38' W 074°10'0 0.0
2014-Dec-15 17:33N 40°38' W 074°10'0 0.0
2014-Dec-15 16:33N 40°38' W 074°10'0 0.0
2014-Dec-15 15:33N 40°38' W 074°10'0 0.0
2014-Dec-15 14:33N 40°38' W 074°10'0 0.0
2014-Dec-15 13:34N 40°38' W 074°10'1 0.8
2014-Dec-15 12:31N 40°39' W 074°11'5 5.3
2014-Dec-15 11:33N 40°40' W 074°04'1 0.6
2014-Dec-15 10:33N 40°40' W 074°05'0 0.0
2014-Dec-15 09:33N 40°40' W 074°05'4 4.0
2014-Dec-15 08:33N 40°38' W 074°10'0 0.0
2014-Dec-15 07:33N 40°38' W 074°10'0 0.0
2014-Dec-15 06:33N 40°38' W 074°10'0 0.0
2014-Dec-15 05:33N 40°38' W 074°10'0 0.0
2014-Dec-15 04:33N 40°38' W 074°10'0 0.0
2014-Dec-15 03:33N 40°38' W 074°10'0 0.0
2014-Dec-15 02:33N 40°38' W 074°10'5 4.6
2014-Dec-15 01:31N 40°40' W 074°04'0 0.4
2014-Dec-15 00:33N 40°40' W 074°04'0 0.1
2014-Dec-14 23:33N 40°40' W 074°04'1 1.2
2014-Dec-14 22:33N 40°39' W 074°05'1 0.5
2014-Dec-14 21:33N 40°39' W 074°06'0 0.2
2014-Dec-14 20:33N 40°39' W 074°06'2 2.0
2014-Dec-14 19:33N 40°40' W 074°04'4 3.5
2014-Dec-14 18:33N 40°40' W 074°08'2 1.3
2014-Dec-14 17:22N 40°42' W 074°08'0 0.0
2014-Dec-14 15:33N 40°42' W 074°08'1 1.3
2014-Dec-14 14:32N 40°40' W 074°08'0 0.0
2014-Dec-14 13:33N 40°40' W 074°08'0 0.0
2014-Dec-14 12:33N 40°40' W 074°08'0 0.4
2014-Dec-14 11:33N 40°41' W 074°09'2 1.6
2014-Dec-14 10:11N 40°39' W 074°08'4 6.1
2014-Dec-14 09:34N 40°38' W 074°03'5 4.9
2014-Dec-14 08:32N 40°38' W 074°10'8 6.6
2014-Dec-14 07:17N 40°31' W 074°15'2 1.9
2014-Dec-14 06:21N 40°30' W 074°15'2 0.6
2014-Dec-14 03:19N 40°31' W 074°15'3 3.8
2014-Dec-14 02:26N 40°34' W 074°13'5 5.3
2014-Dec-14 01:33N 40°38' W 074°10'0 0.0
2014-Dec-14 00:33N 40°38' W 074°10'2 2.4
2014-Dec-13 23:33N 40°41' W 074°08'2 2.1
2014-Dec-13 22:32N 40°39' W 074°08'2 1.7
2014-Dec-13 21:33N 40°38' W 074°10'0 0.0
2014-Dec-13 20:33N 40°38' W 074°10'0 0.0
2014-Dec-13 19:33N 40°38' W 074°10'0 0.0
2014-Dec-13 18:33N 40°38' W 074°10'0 0.0
2014-Dec-13 17:34N 40°38' W 074°10'0 0.0
2014-Dec-13 16:33N 40°38' W 074°10'0 0.0
2014-Dec-13 15:33N 40°38' W 074°10'0 0.2
2014-Dec-13 14:28N 40°39' W 074°10'0 0.2
2014-Dec-13 13:33N 40°38' W 074°10'0 0.0
2014-Dec-13 12:33N 40°38' W 074°10'2 2.3
2014-Dec-13 11:33N 40°39' W 074°07'0 0.3
2014-Dec-13 10:33N 40°39' W 074°07'2 2.0
2014-Dec-13 09:34N 40°38' W 074°10'0 0.0
2014-Dec-13 08:33N 40°38' W 074°10'0 0.0
2014-Dec-13 07:33N 40°38' W 074°10'10 2.4
2014-Dec-13 03:32N 40°30' W 074°15'2 2.2
2014-Dec-13 02:26N 40°32' W 074°15'0 0.0
2014-Dec-13 01:27N 40°32' W 074°15'0 0.0
2014-Dec-13 00:04N 40°32' W 074°15'0 0.0
2014-Dec-12 23:07N 40°32' W 074°15'4 0.9
2014-Dec-12 19:14N 40°35' W 074°13'3 1.6
2014-Dec-12 17:31N 40°38' W 074°12'0 0.3
2014-Dec-12 16:27N 40°38' W 074°12'5 5.5
2014-Dec-12 15:33N 40°39' W 074°06'3 3.2
2014-Dec-12 14:33N 40°38' W 074°10'0 0.0
2014-Dec-12 13:33N 40°38' W 074°10'0 0.0
2014-Dec-12 12:33N 40°38' W 074°10'0 0.0
2014-Dec-12 11:33N 40°38' W 074°10'3 3.0
2014-Dec-12 10:33N 40°39' W 074°06'4 4.3
2014-Dec-12 09:33N 40°40' W 074°00'  

Dump ship's entire track history